Time;durP1;ratioP1;P1;durP2;ratioP2;P2;SDS_P1;SDS_P2;PMS_P1;PMS_P2;Temp;Humidity;BMP_temperature;BMP_pressure;BME280_temperature;BME280_humidity;BME280_pressure;Samples;Min_cycle;Max_cycle;Signal;HPM_P1;HPM_P2
2022/09/04 00:00:19;;;;;;;8.25;4.68;;;;;;;-145.69;100.00;71468.06;5074588;28;20193;-79
2022/09/04 00:03:00;;;;;;;11.77;4.90;;;;;;;-145.69;100.00;71462.09;5074544;28;20205;-78
2022/09/04 00:05:34;;;;;;;9.48;4.72;;;;;;;-145.69;100.00;71462.09;5074473;28;20199;-79
2022/09/04 00:08:20;;;;;;;17.70;5.20;;;;;;;-145.69;100.00;71462.09;5074721;28;20297;-78
2022/09/04 00:10:55;;;;;;;11.07;5.45;;;;;;;-145.69;100.00;71454.13;5058038;28;20561;-78
2022/09/04 00:13:26;;;;;;;9.82;5.10;;;;;;;-145.69;100.00;71458.09;5054492;28;20730;-79
2022/09/04 00:16:01;;;;;;;8.23;4.25;;;;;;;-145.69;100.00;71466.06;5054359;28;20566;-79
2022/09/04 00:18:34;;;;;;;9.75;4.72;;;;;;;-145.69;100.00;71450.16;5054507;28;20202;-79
2022/09/04 00:21:07;;;;;;;12.65;4.53;;;;;;;-145.69;100.00;71462.09;5054459;28;20647;-79
2022/09/04 00:23:44;;;;;;;10.53;4.93;;;;;;;-145.69;100.00;71466.06;5054275;28;20203;-79
2022/09/04 00:26:20;;;;;;;7.77;5.37;;;;;;;-145.69;100.00;71462.09;5054264;28;20199;-78
2022/09/04 00:28:49;;;;;;;10.27;5.03;;;;;;;-145.69;100.00;71462.09;5059856;28;20206;-78
2022/09/04 00:31:25;;;;;;;8.95;5.40;;;;;;;-145.69;100.00;71470.06;5073628;28;20203;-79
2022/09/04 00:34:06;;;;;;;9.07;4.75;;;;;;;-145.69;100.00;71487.97;5073760;28;20661;-78
2022/09/04 00:36:36;;;;;;;11.43;5.10;;;;;;;-145.69;100.00;71501.88;5073862;28;20223;-79
2022/09/04 00:39:13;;;;;;;8.37;5.10;;;;;;;-145.69;100.00;71513.81;5073961;28;20202;-79
2022/09/04 00:41:50;;;;;;;12.17;5.10;;;;;;;-145.69;100.00;71519.81;5074042;28;20228;-78
2022/09/04 00:44:41;;;;;;;8.67;5.13;;;;;;;-145.69;100.00;71509.84;5073838;28;20202;-79
2022/09/04 00:47:50;;;;;;;12.53;5.17;;;;;;;-145.69;100.00;71515.81;5072820;28;20661;-78
2022/09/04 00:50:28;;;;;;;7.80;4.97;;;;;;;-145.69;100.00;71513.81;5073566;28;20226;-79
2022/09/04 00:53:11;;;;;;;10.47;5.13;;;;;;;-145.69;100.00;71511.84;5073683;28;20614;-80
2022/09/04 00:55:49;;;;;;;7.80;5.07;;;;;;;-145.69;100.00;71515.81;5073422;28;20198;-79
2022/09/04 00:58:40;;;;;;;9.57;5.33;;;;;;;-145.69;100.00;71513.81;5073206;28;20699;-78
2022/09/04 01:01:17;;;;;;;13.53;5.53;;;;;;;-145.69;100.00;71521.78;5057538;28;20294;-78
2022/09/04 01:04:10;;;;;;;10.03;4.93;;;;;;;-145.69;100.00;71529.75;5071268;28;20199;-79
2022/09/04 01:06:50;;;;;;;10.45;5.47;;;;;;;-145.69;100.00;71521.78;5073424;28;20385;-79
2022/09/04 01:09:29;;;;;;;9.83;5.37;;;;;;;-145.69;100.00;71521.78;5073467;28;20203;-79
2022/09/04 01:12:06;;;;;;;11.00;6.30;;;;;;;-145.69;100.00;71525.78;5072981;28;20445;-79
2022/09/04 01:14:40;;;;;;;15.82;5.90;;;;;;;-145.69;100.00;71531.75;5073171;28;20194;-78
2022/09/04 01:17:16;;;;;;;9.70;5.05;;;;;;;-145.69;100.00;71531.75;5071285;28;20234;-79
2022/09/04 01:19:58;;;;;;;9.38;4.80;;;;;;;-145.69;100.00;71539.69;5053345;28;20230;-79
2022/09/04 01:22:40;;;;;;;11.77;5.25;;;;;;;-145.69;100.00;71543.69;5053261;28;20203;-79
2022/09/04 01:25:29;;;;;;;6.93;4.70;;;;;;;-145.69;100.00;71545.66;5053297;28;20196;-78
2022/09/04 01:28:03;;;;;;;9.87;4.83;;;;;;;-145.69;100.00;71553.63;5052988;28;20203;-79
2022/09/04 01:30:34;;;;;;;15.88;5.72;;;;;;;-145.69;100.00;71545.66;5072143;28;20230;-79
2022/09/04 01:33:10;;;;;;;15.67;4.90;;;;;;;-145.69;100.00;71553.63;5072984;28;20534;-78
2022/09/04 01:35:48;;;;;;;8.67;5.03;;;;;;;-145.69;100.00;71553.63;5073265;28;20205;-78
2022/09/04 01:38:19;;;;;;;12.27;5.33;;;;;;;-145.69;100.00;71549.66;5072857;28;20213;-79
2022/09/04 01:40:52;;;;;;;16.23;5.47;;;;;;;-145.69;100.00;71559.59;5072998;28;20665;-79
2022/09/04 01:43:22;;;;;;;14.33;5.37;;;;;;;-145.69;100.00;71555.63;5072925;28;20209;-79
2022/09/04 01:46:26;;;;;;;13.55;5.22;;;;;;;-145.69;100.00;71553.63;5072716;28;20218;-79
2022/09/04 01:49:03;;;;;;;15.53;4.93;;;;;;;-145.69;100.00;71551.63;5072899;28;20225;-78
2022/09/04 01:51:37;;;;;;;10.00;5.40;;;;;;;-145.69;100.00;71553.63;5072948;28;20222;-78
2022/09/04 01:54:21;;;;;;;8.40;4.88;;;;;;;-145.69;100.00;71559.59;5072850;28;20669;-80
2022/09/04 01:56:56;;;;;;;9.13;5.07;;;;;;;-145.69;100.00;71553.63;5072911;28;20231;-79
2022/09/04 01:59:29;;;;;;;11.33;5.50;;;;;;;-145.69;100.00;71551.63;5076211;28;20284;-78
2022/09/04 02:02:04;;;;;;;8.57;5.20;;;;;;;-145.69;100.00;71557.59;5077082;28;20300;-79
2022/09/04 02:04:43;;;;;;;9.63;5.60;;;;;;;-145.69;100.00;71553.63;5073618;28;20198;-79
2022/09/04 02:07:18;;;;;;;7.53;5.37;;;;;;;-145.69;100.00;71565.56;5056976;28;20204;-78
2022/09/04 02:09:55;;;;;;;10.67;5.00;;;;;;;-145.69;100.00;71561.59;5056743;28;20201;-78
2022/09/04 02:12:34;;;;;;;12.47;6.17;;;;;;;-145.69;100.00;71559.59;5064353;28;20191;-80
2022/09/04 02:15:12;;;;;;;9.25;5.03;;;;;;;-145.69;100.00;71563.56;5077047;28;20210;-78
2022/09/04 02:17:47;;;;;;;11.93;5.77;;;;;;;-145.69;100.00;71573.53;5076687;28;20312;-78
2022/09/04 02:20:23;;;;;;;11.23;5.37;;;;;;;-145.69;100.00;71573.53;5076661;28;20198;-79
2022/09/04 02:23:02;;;;;;;15.43;5.07;;;;;;;-145.69;100.00;71585.47;5076599;28;20285;-79
2022/09/04 02:25:32;;;;;;;13.13;5.83;;;;;;;-145.69;100.00;71589.44;5076840;28;20202;-78
2022/09/04 02:28:14;;;;;;;10.07;5.50;;;;;;;-145.69;100.00;71577.50;5076474;28;20246;-78
2022/09/04 02:30:49;;;;;;;13.00;5.67;;;;;;;-145.69;100.00;71583.47;5076325;28;20554;-78
2022/09/04 02:33:23;;;;;;;11.53;5.40;;;;;;;-145.69;100.00;71585.47;5076354;28;20209;-79
2022/09/04 02:35:59;;;;;;;11.47;5.63;;;;;;;-145.69;100.00;71593.44;5076277;28;20556;-80
2022/09/04 02:38:32;;;;;;;9.20;5.17;;;;;;;-145.69;100.00;71587.47;5076059;28;20701;-79
2022/09/04 02:41:05;;;;;;;10.50;5.63;;;;;;;-145.69;100.00;71577.50;5076257;28;20206;-79
2022/09/04 02:43:44;;;;;;;10.87;5.83;;;;;;;-145.69;100.00;71579.50;5076240;28;20198;-78
2022/09/04 02:46:18;;;;;;;10.47;5.60;;;;;;;-145.69;100.00;71583.47;5076062;28;20256;-78
2022/09/04 02:48:58;;;;;;;10.70;5.57;;;;;;;-145.69;100.00;71597.41;5076055;28;20202;-78
2022/09/04 02:51:46;;;;;;;12.43;5.40;;;;;;;-145.69;100.00;71597.41;5076225;28;20237;-78
2022/09/04 02:54:25;;;;;;;9.30;4.93;;;;;;;-145.69;100.00;71593.44;5075915;28;20286;-78
2022/09/04 02:57:00;;;;;;;8.53;4.83;;;;;;;-145.69;100.00;71595.41;5075921;28;20223;-77
2022/09/04 02:59:37;;;;;;;9.90;5.83;;;;;;;-145.69;100.00;71589.44;5075710;28;20198;-76
2022/09/04 03:02:13;;;;;;;10.17;5.37;;;;;;;-145.69;100.00;71589.44;5075584;28;20522;-77
2022/09/04 03:04:48;;;;;;;11.40;5.47;;;;;;;-145.69;100.00;71593.44;5075418;28;20265;-78
2022/09/04 03:07:25;;;;;;;13.23;5.60;;;;;;;-145.69;100.00;71601.38;5075971;28;20260;-79
2022/09/04 03:09:57;;;;;;;9.40;5.23;;;;;;;-145.69;100.00;71613.31;5074896;28;20299;-77
2022/09/04 03:12:32;;;;;;;9.80;5.67;;;;;;;-145.69;100.00;71617.31;5075762;28;20239;-79
2022/09/04 03:15:07;;;;;;;7.87;4.90;;;;;;;-145.69;100.00;71613.31;5075623;28;20202;-79
2022/09/04 03:17:47;;;;;;;24.80;5.57;;;;;;;-145.69;100.00;71607.34;5075682;28;20237;-79
2022/09/04 03:20:20;;;;;;;10.40;5.23;;;;;;;-145.69;100.00;71623.28;5075643;28;20206;-79
2022/09/04 03:22:54;;;;;;;11.40;5.20;;;;;;;-145.69;100.00;71627.25;5075584;28;20210;-78
2022/09/04 03:25:36;;;;;;;11.10;5.37;;;;;;;-145.69;100.00;71633.22;5075410;28;20615;-79
2022/09/04 03:28:02;;;;;;;12.77;6.03;;;;;;;-145.69;100.00;71631.25;5075602;28;20206;-79
2022/09/04 03:30:32;;;;;;;11.67;5.80;;;;;;;-145.69;100.00;71619.28;5075179;28;20199;-79
2022/09/04 03:33:08;;;;;;;12.03;6.07;;;;;;;-145.69;100.00;71613.31;5075231;28;20203;-79
2022/09/04 03:35:42;;;;;;;11.50;5.70;;;;;;;-145.69;100.00;71605.38;5075284;28;20248;-79
2022/09/04 03:38:19;;;;;;;10.27;5.40;;;;;;;-145.69;100.00;71625.25;5074998;28;20237;-79
2022/09/04 03:40:56;;;;;;;9.33;5.33;;;;;;;-145.69;100.00;71631.25;5075231;28;20649;-79
2022/09/04 03:43:36;;;;;;;9.20;5.33;;;;;;;-145.69;100.00;71641.19;5074972;28;20582;-79
2022/09/04 03:46:20;;;;;;;9.50;5.33;;;;;;;-145.69;100.00;71649.16;5074781;28;20230;-79
2022/09/04 03:49:05;;;;;;;11.73;5.77;;;;;;;-145.69;100.00;71657.09;5075139;28;20214;-79
2022/09/04 03:51:43;;;;;;;13.63;5.73;;;;;;;-145.69;100.00;71651.13;5075031;28;20237;-78
2022/09/04 03:54:29;;;;;;;9.60;5.27;;;;;;;-145.69;100.00;71653.13;5075044;28;20198;-78
2022/09/04 03:57:08;;;;;;;11.00;5.80;;;;;;;-145.69;100.00;71649.16;5067622;28;20624;-78
2022/09/04 04:00:01;;;;;;;12.43;5.17;;;;;;;-145.69;100.00;71659.09;5054910;28;20200;-79
2022/09/04 04:02:41;;;;;;;12.43;6.17;;;;;;;-145.69;100.00;71657.09;5054723;28;20196;-80
2022/09/04 04:05:24;;;;;;;17.43;6.43;;;;;;;-145.69;100.00;71661.09;5054625;28;20196;-78
2022/09/04 04:08:03;;;;;;;11.07;5.70;;;;;;;-145.69;100.00;71673.03;5054710;28;20196;-79
2022/09/04 04:10:38;;;;;;;14.80;5.70;;;;;;;-145.69;100.00;71663.06;5054627;28;20214;-78
2022/09/04 04:13:36;;;;;;;13.50;5.57;;;;;;;-145.69;100.00;71673.03;5054517;28;20205;-79
2022/09/04 04:16:17;;;;;;;12.10;5.73;;;;;;;-145.69;100.00;71661.09;5071036;28;20286;-78
2022/09/04 04:19:00;;;;;;;12.27;6.07;;;;;;;-145.69;100.00;71661.09;5074482;28;20284;-78
2022/09/04 04:21:49;;;;;;;15.50;6.50;;;;;;;-145.69;100.00;71653.13;5074411;28;20297;-78
2022/09/04 04:24:51;;;;;;;13.63;5.97;;;;;;;-145.69;100.00;71659.09;5074135;28;20556;-78
2022/09/04 04:27:31;;;;;;;10.73;5.83;;;;;;;-145.69;100.00;71677.00;5074222;28;20281;-77
2022/09/04 04:30:07;;;;;;;12.50;5.93;;;;;;;-145.69;100.00;71680.97;5074159;28;20202;-78
2022/09/04 04:32:50;;;;;;;11.00;5.37;;;;;;;-145.69;100.00;71692.94;5074310;28;20205;-79
2022/09/04 04:35:27;;;;;;;13.77;5.70;;;;;;;-145.69;100.00;71700.88;5073495;28;20199;-78
2022/09/04 04:38:08;;;;;;;13.03;6.07;;;;;;;-145.69;100.00;71692.94;5073807;28;20229;-80
2022/09/04 04:40:59;;;;;;;15.67;6.43;;;;;;;-145.69;100.00;71684.97;5073765;28;20202;-80
2022/09/04 04:43:34;;;;;;;15.00;7.27;;;;;;;-145.69;100.00;71667.06;5074171;28;20293;-79
2022/09/04 04:46:07;;;;;;;16.23;7.07;;;;;;;-145.69;100.00;71659.09;5073862;28;20213;-78
2022/09/04 04:49:06;;;;;;;13.50;6.70;;;;;;;-145.69;100.00;71659.09;5073755;28;20202;-78
2022/09/04 04:51:45;;;;;;;15.73;6.77;;;;;;;-145.69;100.00;71680.97;5073746;28;20202;-79
2022/09/04 04:54:26;;;;;;;11.93;5.70;;;;;;;-145.69;100.00;71692.94;5073797;28;20636;-78
2022/09/04 04:56:59;;;;;;;15.57;5.73;;;;;;;-145.69;100.00;71700.88;5073604;28;20195;-77
2022/09/04 04:59:35;;;;;;;14.48;6.63;;;;;;;-145.69;100.00;71700.88;5073378;28;20438;-79
2022/09/04 05:02:09;;;;;;;18.70;6.70;;;;;;;-145.69;100.00;71688.94;5073736;28;20202;-79
2022/09/04 05:04:45;;;;;;;13.93;6.07;;;;;;;-145.69;100.00;71692.94;5073364;28;20197;-78
2022/09/04 05:07:22;;;;;;;11.83;5.17;;;;;;;-145.69;100.00;71718.78;5072373;28;20207;-78
2022/09/04 05:09:57;;;;;;;17.57;5.90;;;;;;;-145.69;100.00;71700.88;5073210;28;20194;-78
2022/09/04 05:12:34;;;;;;;14.73;6.13;;;;;;;-145.69;100.00;71700.88;5073553;28;20205;-79
2022/09/04 05:15:08;;;;;;;14.20;6.97;;;;;;;-145.69;100.00;71696.91;5073457;28;20592;-78
2022/09/04 05:17:41;;;;;;;16.50;6.83;;;;;;;-145.69;100.00;71704.88;5073259;28;20230;-78
2022/09/04 05:20:24;;;;;;;13.13;6.40;;;;;;;-145.69;100.00;71698.91;5073133;28;20206;-78
2022/09/04 05:23:01;;;;;;;12.67;6.73;;;;;;;-145.69;100.00;71696.91;5071937;28;20260;-79
2022/09/04 05:25:38;;;;;;;15.57;6.50;;;;;;;-145.69;100.00;71692.94;5073212;28;20661;-77
2022/09/04 05:28:14;;;;;;;19.20;7.17;;;;;;;-145.69;100.00;71692.94;5073178;28;20252;-78
2022/09/04 05:30:49;;;;;;;14.97;7.13;;;;;;;-145.69;100.00;71677.00;5073049;28;20207;-79
2022/09/04 05:33:24;;;;;;;12.27;6.60;;;;;;;-145.69;100.00;71682.97;5072502;28;20251;-78
2022/09/04 05:35:59;;;;;;;16.40;6.77;;;;;;;-145.69;100.00;71682.97;5072768;28;20268;-77
2022/09/04 05:38:32;;;;;;;15.37;6.93;;;;;;;-145.69;100.00;71680.97;5072837;28;20218;-78
2022/09/04 05:41:06;;;;;;;16.87;6.47;;;;;;;-145.69;100.00;71698.91;5073168;28;20202;-77
2022/09/04 05:44:01;;;;;;;14.10;7.13;;;;;;;-145.69;100.00;71686.97;5072779;28;20194;-77
2022/09/04 05:46:39;;;;;;;10.95;5.90;;;;;;;-145.69;100.00;71673.03;5070783;28;20302;-76
2022/09/04 05:49:15;;;;;;;15.43;7.60;;;;;;;-145.69;100.00;71653.13;5072806;28;20234;-76
2022/09/04 05:52:22;;;;;;;16.17;7.90;;;;;;;-145.69;100.00;71649.16;5072905;28;20283;-77
2022/09/04 05:55:11;;;;;;;18.13;6.83;;;;;;;-145.69;100.00;71647.16;5055139;28;20252;-79
2022/09/04 05:57:48;;;;;;;24.17;7.87;;;;;;;-145.69;100.00;71643.19;5072720;28;20287;-79
2022/09/04 06:00:16;;;;;;;15.50;7.43;;;;;;;-145.69;100.00;71631.25;5072887;28;20611;-78
2022/09/04 06:03:10;;;;;;;16.30;7.47;;;;;;;-145.69;100.00;71631.25;5072746;28;20572;-79
2022/09/04 06:05:46;;;;;;;16.30;8.52;;;;;;;-145.69;100.00;71629.25;5069179;28;20195;-78
2022/09/04 06:08:26;;;;;;;20.48;10.90;;;;;;;-145.69;100.00;71615.31;5072027;28;20491;-78
2022/09/04 06:11:05;;;;;;;18.35;9.23;;;;;;;-145.69;100.00;71607.34;5072910;28;20209;-79
2022/09/04 06:13:49;;;;;;;19.90;8.93;;;;;;;-145.69;100.00;71595.41;5072710;28;20210;-79
2022/09/04 06:16:40;;;;;;;15.85;7.80;;;;;;;-145.69;100.00;71597.41;5072678;28;20203;-80
2022/09/04 06:19:27;;;;;;;16.70;7.82;;;;;;;-145.69;100.00;71595.41;5073044;28;20237;-79
2022/09/04 06:22:07;;;;;;;12.90;7.07;;;;;;;-145.69;100.00;71581.50;5072539;28;20621;-78
2022/09/04 06:24:56;;;;;;;19.55;7.65;;;;;;;-145.69;100.00;71577.50;5072290;28;20700;-78
2022/09/04 06:27:41;;;;;;;16.30;8.05;;;;;;;-145.69;100.00;71573.53;5072563;28;20209;-78
2022/09/04 06:30:11;;;;;;;14.18;6.90;;;;;;;-145.69;100.00;71561.59;5072523;28;20206;-79
2022/09/04 06:33:00;;;;;;;19.80;7.82;;;;;;;-145.69;100.00;71547.66;5072507;28;20260;-79
2022/09/04 06:35:39;;;;;;;20.00;8.15;;;;;;;-145.69;100.00;71529.75;5072352;28;20662;-79
2022/09/04 06:38:40;;;;;;;16.90;8.57;;;;;;;-145.69;100.00;71513.81;5072374;28;20765;-78
2022/09/04 06:41:34;;;;;;;19.58;9.40;;;;;;;-145.69;100.00;71493.94;5072197;28;20285;-78
2022/09/04 06:44:07;;;;;;;17.17;8.70;;;;;;;-145.69;100.00;71472.03;5072494;28;20199;-80
2022/09/04 06:46:40;;;;;;;16.30;8.10;;;;;;;-145.69;100.00;71450.16;5075755;28;20232;-79
2022/09/04 06:49:12;;;;;;;15.82;8.75;;;;;;;-145.69;100.00;71424.28;5075998;28;20235;-79
2022/09/04 06:51:53;;;;;;;17.90;9.18;;;;;;;-145.69;100.00;71398.41;5076017;28;20290;-79
2022/09/04 06:54:35;;;;;;;17.40;8.35;;;;;;;-145.69;100.00;71380.50;5075937;28;20199;-78
2022/09/04 06:57:27;;;;;;;18.67;9.70;;;;;;;-145.69;100.00;71356.63;5075683;28;20454;-79
2022/09/04 07:00:02;;;;;;;14.73;8.52;;;;;;;-145.69;100.00;71334.75;5075875;28;20202;-78
2022/09/04 07:02:48;;;;;;;16.42;8.15;;;;;;;-145.69;100.00;71314.84;5076230;28;20234;-78
2022/09/04 07:05:25;;;;;;;16.55;7.80;;;;;;;-145.69;100.00;71286.97;5074627;28;20239;-77
2022/09/04 07:08:03;;;;;;;16.92;7.68;;;;;;;-145.69;100.00;71283.00;5075833;28;20255;-79
2022/09/04 07:10:34;;;;;;;12.85;6.88;;;;;;;-145.69;100.00;71267.09;5075407;28;20187;-79
2022/09/04 07:13:32;;;;;;;13.50;7.47;;;;;;;-145.69;100.00;71247.19;5075798;28;20202;-78
2022/09/04 07:16:15;;;;;;;14.20;7.38;;;;;;;-145.69;100.00;71231.28;5072244;28;20202;-79
2022/09/04 07:19:00;;;;;;;11.88;6.97;;;;;;;-145.69;100.00;71223.31;5075545;28;20231;-78
2022/09/04 07:21:32;;;;;;;9.20;6.30;;;;;;;-145.69;100.00;71213.38;5074507;28;20281;-79
2022/09/04 07:24:05;;;;;;;11.20;6.15;;;;;;;-145.69;100.00;71195.47;5075356;28;20603;-77
2022/09/04 07:26:39;;;;;;;8.88;5.72;;;;;;;-145.69;100.00;71197.44;5075316;28;20195;-80
2022/09/04 07:29:18;;;;;;;7.20;5.00;;;;;;;-145.69;100.00;71181.53;5075368;28;20210;-80
2022/09/04 07:31:54;;;;;;;7.28;4.82;;;;;;;-145.69;100.00;71187.50;5075565;28;20207;-80
2022/09/04 07:34:27;;;;;;;9.02;3.20;;;;;;;-145.69;100.00;71219.34;5075266;28;20721;-80
2022/09/04 07:37:00;;;;;;;6.05;3.03;;;;;;;-145.69;100.00;71215.34;5075271;28;20218;-78
2022/09/04 07:39:35;;;;;;;5.32;3.05;;;;;;;-145.69;100.00;71189.47;5075013;28;20262;-78
2022/09/04 07:42:11;;;;;;;5.20;3.30;;;;;;;-145.69;100.00;71179.53;5075264;28;20243;-76
2022/09/04 07:44:47;;;;;;;4.93;2.35;;;;;;;-145.69;100.00;71167.59;5075206;28;20624;-79
2022/09/04 07:47:20;;;;;;;3.83;2.40;;;;;;;-145.69;100.00;71147.69;5075250;28;20206;-79
2022/09/04 07:49:58;;;;;;;3.67;1.90;;;;;;;-145.69;100.00;71143.72;5074828;28;20230;-79
2022/09/04 07:52:44;;;;;;;2.42;2.13;;;;;;;-145.69;100.00;71127.81;5074972;28;20202;-78
2022/09/04 07:55:17;;;;;;;2.90;1.70;;;;;;;-145.69;100.00;71101.94;5074884;28;20202;-77
2022/09/04 07:58:06;;;;;;;6.15;2.10;;;;;;;-145.69;100.00;71095.97;5074600;28;20203;-77
2022/09/04 08:00:42;;;;;;;2.25;1.90;;;;;;;-145.69;100.00;71095.97;5074667;28;20209;-77
2022/09/04 08:03:24;;;;;;;3.50;1.70;;;;;;;-145.69;100.00;71064.13;5074873;28;20271;-77
2022/09/04 08:05:59;;;;;;;2.88;1.73;;;;;;;-145.69;100.00;71058.16;5064601;28;20261;-77
2022/09/04 08:08:55;;;;;;;2.22;1.90;;;;;;;-145.69;100.00;71040.25;5054583;28;20253;-78
2022/09/04 08:11:47;;;;;;;2.58;1.92;;;;;;;-145.69;100.00;71042.25;5054779;28;20257;-76
2022/09/04 08:14:22;;;;;;;2.08;1.60;;;;;;;-145.69;100.00;71044.22;5052007;28;20202;-76
2022/09/04 08:17:00;;;;;;;2.10;1.90;;;;;;;-145.69;100.00;71034.28;5054392;28;20234;-78
2022/09/04 08:19:41;;;;;;;2.97;1.80;;;;;;;-145.69;100.00;71020.34;5054227;28;20266;-76
2022/09/04 08:22:13;;;;;;;2.50;1.50;;;;;;;-145.69;100.00;71020.34;5054505;28;20207;-77
2022/09/04 08:25:00;;;;;;;3.28;1.83;;;;;;;-145.69;100.00;71016.38;5056086;28;20728;-76
2022/09/04 08:27:50;;;;;;;4.55;1.85;;;;;;;-145.69;100.00;71008.41;5059618;28;20537;-78
2022/09/04 08:30:20;;;;;;;2.90;1.83;;;;;;;-145.69;100.00;71000.47;5074092;28;20234;-77
2022/09/04 08:33:27;;;;;;;4.28;1.90;;;;;;;-145.69;100.00;70996.47;5074065;28;20707;-77
2022/09/04 08:35:59;;;;;;;3.47;1.70;;;;;;;-145.69;100.00;70996.47;5048811;28;20203;-77
2022/09/04 08:38:54;;;;;;;1.75;1.50;;;;;;;-145.69;100.00;70980.56;5074027;28;20300;-77
2022/09/04 08:41:51;;;;;;;2.65;1.70;;;;;;;-145.69;100.00;70966.63;5074056;28;20249;-77
2022/09/04 08:45:09;;;;;;;3.90;1.95;;;;;;;-145.69;100.00;70964.66;5073719;28;20201;-78
2022/09/04 08:48:09;;;;;;;3.10;1.42;;;;;;;-145.69;100.00;70946.75;5073958;28;20203;-77
2022/09/04 08:51:11;;;;;;;2.97;1.60;;;;;;;-145.69;100.00;70930.81;5071227;28;20623;-78
2022/09/04 08:54:12;;;;;;;2.13;1.70;;;;;;;-145.69;100.00;70928.84;5073810;28;20194;-77
2022/09/04 08:56:47;;;;;;;1.90;1.70;;;;;;;-145.69;100.00;70916.91;5040288;28;20252;-79
2022/09/04 08:59:55;;;;;;;3.05;1.58;;;;;;;-145.69;100.00;70926.84;5053483;28;20222;-77
2022/09/04 09:03:00;;;;;;;3.22;1.80;;;;;;;-145.69;100.00;70928.84;5072971;28;20199;-76
2022/09/04 09:05:56;;;;;;;4.40;1.70;;;;;;;-145.69;100.00;70912.91;5073477;28;20267;-77
2022/09/04 09:09:01;;;;;;;2.08;1.52;;;;;;;-145.69;100.00;70897.00;5055797;28;20198;-76
2022/09/04 09:12:04;;;;;;;2.88;1.55;;;;;;;-145.69;100.00;70893.03;5073261;28;20203;-78
2022/09/04 09:15:04;;;;;;;2.30;1.70;;;;;;;-145.69;100.00;70897.00;5073415;28;20247;-77
2022/09/04 09:17:38;;;;;;;2.35;1.60;;;;;;;-145.69;100.00;70871.13;5073204;28;20199;-78
2022/09/04 09:20:25;;;;;;;4.28;1.60;;;;;;;-145.69;100.00;70867.16;5073370;28;20222;-77
2022/09/04 09:23:17;;;;;;;5.65;1.60;;;;;;;-145.69;98.39;70857.22;5071939;28;20287;-76
2022/09/04 09:25:51;;;;;;;7.53;1.42;;;;;;;-145.69;92.60;70865.16;5073052;28;20600;-78
2022/09/04 09:28:50;;;;;;;1.50;1.20;;;;;;;-145.69;97.85;70865.16;5073744;28;20206;-76
2022/09/04 09:31:50;;;;;;;3.53;1.70;;;;;;;-145.69;100.00;70841.28;5073209;28;20271;-75
2022/09/04 09:35:11;;;;;;;2.10;1.40;;;;;;;-145.69;91.64;70863.19;5073116;28;20252;-76
2022/09/04 09:38:06;;;;;;;3.33;1.40;;;;;;;-145.69;98.65;70863.19;5072984;28;20561;-76
2022/09/04 09:41:01;;;;;;;1.90;1.25;;;;;;;-145.69;91.50;70841.28;5072926;28;20230;-75
2022/09/04 09:43:57;;;;;;;3.25;1.30;;;;;;;-145.69;88.67;70855.22;5073072;28;20199;-75
2022/09/04 09:47:00;;;;;;;1.83;1.40;;;;;;;-145.69;92.29;70857.22;5072987;28;20207;-76
2022/09/04 09:50:00;;;;;;;2.25;1.35;;;;;;;-145.69;88.40;70845.28;5072669;28;20701;-76
2022/09/04 09:52:52;;;;;;;2.55;1.23;;;;;;;-145.69;92.84;70817.41;5073005;28;20289;-77
2022/09/04 09:55:43;;;;;;;1.30;1.10;;;;;;;-145.69;88.01;70825.38;5072540;28;20199;-77
2022/09/04 09:58:53;;;;;;;2.47;1.42;;;;;;;-145.69;90.52;70821.41;5072811;28;20672;-77
2022/09/04 10:01:42;;;;;;;2.33;1.20;;;;;;;-145.69;91.85;70797.53;5013854;28;20203;-76
2022/09/04 10:04:36;;;;;;;2.63;1.40;;;;;;;-145.69;88.71;70769.66;5052836;28;20199;-77
2022/09/04 10:07:29;;;;;;;4.00;1.60;;;;;;;-145.69;84.42;70717.94;5052796;28;20235;-77
2022/09/04 10:10:27;;;;;;;1.60;1.02;;;;;;;-145.69;68.69;70721.91;5052860;28;20218;-77
2022/09/04 10:13:30;;;;;;;1.60;1.20;;;;;;;-145.69;69.64;70729.88;5069774;28;20199;-77
2022/09/04 10:16:25;;;;;;;2.42;1.13;;;;;;;-145.69;76.31;70735.84;5072635;28;20198;-77
2022/09/04 10:19:28;;;;;;;1.90;1.27;;;;;;;-145.69;75.27;70715.94;5073274;28;20684;-77
2022/09/04 10:22:20;;;;;;;3.63;1.13;;;;;;;-145.69;82.04;70702.03;5076594;28;20199;-77
2022/09/04 10:25:25;;;;;;;1.77;1.27;;;;;;;-145.69;70.03;70692.06;5076420;28;20195;-79
2022/09/04 10:28:28;;;;;;;1.38;1.20;;;;;;;-145.69;74.30;70690.09;5072414;28;20209;-77
2022/09/04 10:31:17;;;;;;;4.50;1.30;;;;;;;-145.69;65.11;70688.09;5033538;28;20206;-77
2022/09/04 10:34:03;;;;;;;1.20;1.10;;;;;;;-145.69;62.40;70692.06;5065171;28;20199;-79
2022/09/04 10:36:46;;;;;;;1.83;1.15;;;;;;;-145.69;64.31;70694.06;5055550;28;20199;-76
2022/09/04 10:42:26;;;;;;;1.98;1.30;;;;;;;-145.69;64.03;70664.22;5056197;28;20209;-76
2022/09/04 10:45:15;;;;;;;1.75;1.10;;;;;;;-145.69;59.38;70640.34;5056131;28;20207;-76
2022/09/04 10:48:01;;;;;;;1.35;1.00;;;;;;;-145.69;62.53;70628.41;5056005;28;20605;-79
2022/09/04 10:50:45;;;;;;;1.77;1.08;;;;;;;-145.69;60.45;70650.28;5055598;28;20756;-81
2022/09/04 10:53:37;;;;;;;1.33;0.90;;;;;;;-145.69;62.79;70658.25;5057285;28;20194;-80
2022/09/04 10:56:11;;;;;;;2.25;1.05;;;;;;;-145.69;59.10;70662.22;5071510;28;20206;-80
2022/09/04 10:59:09;;;;;;;1.13;0.83;;;;;;;-145.69;61.94;70654.28;5054954;28;20285;-79
2022/09/04 11:02:14;;;;;;;3.28;1.20;;;;;;;-145.69;62.60;70610.50;5055697;28;20559;-80
2022/09/04 11:05:28;;;;;;;2.45;1.05;;;;;;;-145.69;55.39;70600.56;5050960;28;20210;-79
2022/09/04 11:08:18;;;;;;;2.63;1.05;;;;;;;-145.69;56.36;70602.56;5013733;28;20710;-78
2022/09/04 11:11:11;;;;;;;2.83;1.15;;;;;;;-145.69;59.56;70622.44;5051971;28;20203;-79
2022/09/04 11:14:18;;;;;;;1.92;1.10;;;;;;;-145.69;56.59;70624.44;5055527;28;20200;-76
2022/09/04 11:17:17;;;;;;;3.95;1.30;;;;;;;-145.69;54.99;70650.28;5063470;28;20191;-79
2022/09/04 11:20:22;;;;;;;1.45;1.00;;;;;;;-145.69;53.50;70624.44;5074817;28;20215;-77
2022/09/04 11:23:29;;;;;;;1.55;1.13;;;;;;;-145.69;63.38;70556.78;5075202;28;20199;-78
2022/09/04 11:26:28;;;;;;;2.55;1.10;;;;;;;-145.69;53.27;70550.81;5073976;28;21001;-78
2022/09/04 11:29:21;;;;;;;1.20;1.10;;;;;;;-145.69;55.89;70532.91;5075405;28;20637;-78
2022/09/04 11:32:11;;;;;;;2.13;1.08;;;;;;;-145.69;56.74;70519.00;5067898;28;20222;-78
2022/09/04 11:35:20;;;;;;;3.22;1.00;;;;;;;-145.69;54.44;70524.97;5075390;28;20709;-79
2022/09/04 11:37:58;;;;;;;3.67;1.13;;;;;;;-145.69;55.38;70530.94;5075383;28;20290;-78
2022/09/04 11:40:55;;;;;;;1.58;1.00;;;;;;;-145.69;50.51;70522.97;5075061;28;20222;-79
2022/09/04 11:43:49;;;;;;;1.42;1.02;;;;;;;-145.69;52.36;70520.97;5075004;28;20657;-78
2022/09/04 11:46:31;;;;;;;3.22;0.93;;;;;;;-145.69;51.22;70522.97;5074578;28;20222;-78
2022/09/04 11:49:39;;;;;;;1.65;1.13;;;;;;;-145.69;55.81;70519.00;5074598;28;20560;-78
2022/09/04 11:52:24;;;;;;;2.10;1.13;;;;;;;-145.69;51.63;70499.09;5055046;28;20203;-80
2022/09/04 11:55:17;;;;;;;1.50;1.08;;;;;;;-145.69;52.48;70431.47;5054725;28;20211;-77
2022/09/04 11:58:09;;;;;;;11.23;6.47;;;;;;;-145.69;54.91;70355.88;5054590;28;20290;-78
2022/09/04 12:00:49;;;;;;;2.70;1.27;;;;;;;-145.69;58.84;70328.00;5054881;28;20306;-79
2022/09/04 12:03:40;;;;;;;1.48;1.00;;;;;;;-145.69;57.63;70328.00;5053080;28;20946;-79
2022/09/04 12:06:33;;;;;;;1.33;1.00;;;;;;;-145.69;52.97;70343.94;5054465;28;20203;-81
2022/09/04 12:09:19;;;;;;;1.98;1.00;;;;;;;-145.69;49.14;70387.69;5054608;28;20249;-80
2022/09/04 12:12:09;;;;;;;1.90;1.00;;;;;;;-145.69;47.98;70451.34;5054374;28;20682;-79
2022/09/04 12:14:55;;;;;;;3.25;1.00;;;;;;;-145.69;49.54;70485.16;5054296;28;20650;-78
2022/09/04 12:17:55;;;;;;;3.22;1.02;;;;;;;-145.69;52.14;70499.09;5069860;28;20555;-77
2022/09/04 12:20:51;;;;;;;1.63;0.85;;;;;;;-145.69;49.19;70461.31;4991619;28;20332;-79
2022/09/04 12:23:40;;;;;;;2.83;1.17;;;;;;;-145.69;48.46;70437.44;5055676;28;20658;-79